7°C Temp
-1°C Dewpoint
% Humidity
Temperature
8 KM/H
5 MPH
4 KTS
360°
Due North

Wind Speed
Mostly Scattered
Clouds
Pressure 1021.92 (hPa) - 30.18 (in)
Visibility 6.2 (mi) - 10.0 (km)

Current Conditions
EHBK
Location 6km (3.2mi)
Metar :EHBK 081325Z AUTO 36004KT 300V070 9999 SCT031 07/M01 Q1022 NOSIG
Mon 8th March 14:25 pm

Airport
  Metar Aviation API Data Provided by https://www.checkwx.com/ PHP scripts by weather34.com ©2021